createdAt,value
2018-12-12T05:05:22.221Z,50.60
2018-12-12T05:10:23.394Z,50.40
2018-12-12T05:12:49.610Z,46.70
2018-12-12T05:15:16.572Z,46.40
2018-12-12T05:17:42.775Z,45.70
2018-12-12T05:20:08.973Z,45.30
2018-12-12T05:22:36.367Z,44.60
2018-12-12T05:25:02.986Z,44.00
2018-12-12T05:27:30.126Z,45.10
2018-12-12T05:29:56.365Z,45.30
2018-12-12T05:32:22.594Z,45.30
2018-12-12T05:34:48.802Z,45.10
2018-12-12T05:37:15.406Z,45.50
2018-12-12T05:39:41.958Z,45.70
2018-12-12T05:42:08.800Z,46.00
2018-12-12T05:44:35.709Z,46.20
2018-12-12T05:47:02.621Z,46.50
2018-12-12T05:49:28.826Z,46.60
2018-12-12T05:51:55.152Z,46.80
2018-12-12T05:54:21.592Z,46.90
2018-12-12T05:56:52.322Z,47.10
2018-12-12T05:59:16.092Z,47.20
2018-12-12T06:01:42.305Z,47.20
2018-12-12T06:04:08.507Z,47.30
2018-12-12T06:06:35.358Z,47.50
2018-12-12T06:09:02.338Z,47.60
2018-12-12T06:11:29.140Z,47.70
2018-12-12T06:13:55.377Z,47.80
2018-12-12T06:16:22.243Z,47.90
2018-12-12T06:18:48.485Z,48.00
2018-12-12T06:21:14.707Z,48.20
2018-12-12T06:23:40.933Z,48.30
2018-12-12T06:26:07.869Z,48.30
2018-12-12T06:28:34.142Z,48.40
2018-12-12T06:31:00.648Z,48.60
2018-12-12T06:33:27.331Z,48.60
2018-12-12T06:35:54.192Z,48.70
2018-12-12T06:38:20.424Z,48.70
2018-12-12T06:40:47.243Z,48.90
2018-12-12T06:43:13.445Z,48.90
2018-12-12T06:45:39.673Z,49.00
2018-12-12T06:48:07.033Z,49.10
2018-12-12T06:50:33.254Z,49.10
2018-12-12T06:52:59.512Z,49.10
2018-12-12T06:55:26.356Z,49.20
2018-12-12T06:57:52.574Z,49.20
2018-12-12T07:00:18.821Z,49.30
2018-12-12T07:02:46.165Z,49.30
2018-12-12T07:05:12.649Z,49.40
2018-12-12T07:07:38.879Z,49.40
2018-12-12T07:10:05.106Z,49.40
2018-12-12T07:12:32.153Z,49.40
2018-12-12T07:14:58.689Z,49.40
2018-12-12T07:17:25.893Z,49.40
2018-12-12T07:19:52.537Z,49.40
2018-12-12T07:22:19.420Z,49.40
2018-12-12T07:24:45.704Z,49.10
2018-12-12T07:27:12.909Z,49.50
2018-12-12T07:29:39.133Z,49.50
2018-12-12T07:32:05.359Z,49.60
2018-12-12T07:34:32.593Z,49.60
2018-12-12T07:36:59.554Z,49.70
2018-12-12T07:39:25.834Z,49.70
2018-12-12T07:41:52.070Z,49.80
2018-12-12T07:44:18.557Z,49.80
2018-12-12T07:46:44.768Z,49.80
2018-12-12T07:49:10.975Z,49.80
2018-12-12T07:51:37.989Z,49.90
2018-12-12T07:54:05.209Z,49.90
2018-12-12T07:56:31.584Z,49.90
2018-12-12T07:58:57.816Z,49.90
2018-12-12T08:01:24.044Z,50.10
2018-12-12T08:03:51.084Z,50.00
2018-12-12T08:06:17.818Z,50.00
2018-12-12T08:08:44.434Z,50.10
2018-12-12T08:11:10.658Z,50.10
2018-12-12T08:13:37.603Z,50.10
2018-12-12T08:16:03.880Z,50.10
2018-12-12T08:18:30.091Z,50.10
2018-12-12T08:20:57.256Z,50.00
2018-12-12T08:23:24.414Z,50.10
2018-12-12T08:25:51.022Z,50.10
2018-12-12T08:28:17.368Z,50.00
2018-12-12T08:30:44.226Z,50.00
2018-12-12T08:33:11.362Z,50.00
2018-12-12T08:35:37.930Z,50.00
2018-12-12T08:38:04.130Z,50.00
2018-12-12T08:40:30.376Z,49.90
2018-12-12T08:42:57.353Z,50.00
2018-12-12T08:45:23.939Z,50.00
2018-12-12T08:47:50.173Z,49.90
2018-12-12T08:50:16.403Z,50.00
2018-12-12T08:52:42.736Z,50.00
2018-12-12T08:55:09.786Z,50.00
2018-12-12T08:57:36.017Z,50.00
2018-12-12T09:00:03.367Z,50.00
2018-12-12T09:02:30.165Z,50.10
2018-12-12T09:04:56.409Z,50.20
2018-12-12T09:07:23.334Z,50.10
2018-12-12T09:09:49.652Z,50.10
2018-12-12T09:12:15.873Z,50.20
2018-12-12T09:14:42.847Z,50.20
2018-12-12T09:17:09.887Z,50.30
2018-12-12T09:19:37.298Z,50.30
2018-12-12T09:22:03.498Z,50.30
2018-12-12T09:24:29.756Z,50.30
2018-12-12T09:26:56.609Z,50.40
2018-12-12T09:29:22.838Z,50.30
2018-12-12T09:31:49.137Z,50.50
2018-12-12T09:34:15.357Z,50.30
2018-12-12T09:36:42.204Z,50.30
2018-12-12T09:39:09.073Z,50.40
2018-12-12T09:41:36.412Z,50.30
2018-12-12T09:44:02.658Z,50.40
2018-12-12T09:46:28.877Z,51.00
2018-12-12T09:48:55.156Z,50.30
2018-12-12T09:51:21.737Z,50.30
2018-12-12T09:53:47.969Z,50.30
2018-12-12T09:56:14.667Z,50.30
2018-12-12T09:58:41.203Z,50.30
2018-12-12T10:01:07.468Z,50.30
2018-12-12T10:03:33.715Z,50.30
2018-12-12T10:05:59.921Z,50.30
2018-12-12T10:08:26.149Z,50.30
2018-12-12T10:10:52.721Z,50.30
2018-12-12T10:13:19.073Z,50.30
2018-12-12T10:15:45.578Z,50.40
2018-12-12T10:18:11.777Z,50.40
2018-12-12T10:20:39.044Z,50.40
2018-12-12T10:23:05.577Z,50.50
2018-12-12T10:25:31.825Z,50.50
2018-12-12T10:27:58.064Z,50.50
2018-12-12T10:30:25.025Z,50.50
2018-12-12T10:32:51.252Z,51.10
2018-12-12T10:35:17.893Z,51.10
2018-12-12T10:40:16.647Z,50.50
2018-12-12T10:42:42.927Z,50.50
2018-12-12T10:45:10.148Z,50.50
2018-12-12T10:47:36.372Z,50.50
2018-12-12T10:50:02.596Z,50.50
2018-12-12T10:52:28.957Z,50.50
2018-12-12T10:54:55.778Z,50.50
2018-12-12T10:57:23.153Z,50.50
2018-12-12T10:59:49.394Z,50.50
2018-12-12T11:02:15.644Z,50.60
2018-12-12T11:04:41.846Z,50.50
2018-12-12T11:07:08.398Z,50.50
2018-12-12T11:09:34.661Z,50.50
2018-12-12T11:12:00.913Z,50.50
2018-12-12T11:14:27.272Z,50.50
2018-12-12T11:16:53.487Z,50.50
2018-12-12T11:19:20.012Z,51.10
2018-12-12T11:21:46.981Z,50.50
2018-12-12T11:24:14.323Z,51.10
2018-12-12T11:26:41.099Z,50.50
2018-12-12T11:29:07.901Z,50.50
2018-12-12T11:31:34.812Z,50.50
2018-12-12T11:34:01.105Z,50.50
2018-12-12T11:36:27.321Z,50.40
2018-12-12T11:38:53.554Z,50.40
2018-12-12T11:41:20.770Z,50.40
2018-12-12T11:43:46.981Z,50.50
2018-12-12T11:46:13.186Z,50.50
2018-12-12T11:48:40.133Z,50.50
2018-12-12T11:51:06.415Z,50.50
2018-12-12T11:53:32.638Z,50.40
2018-12-12T11:55:59.657Z,50.50
2018-12-12T11:58:26.248Z,50.50
2018-12-12T12:00:52.473Z,50.50
2018-12-12T12:03:18.676Z,50.50
2018-12-12T12:05:44.908Z,50.60
2018-12-12T12:08:11.136Z,50.60
2018-12-12T12:10:37.367Z,50.50
2018-12-12T12:13:03.595Z,50.50
2018-12-12T12:15:29.844Z,50.50
2018-12-12T12:17:56.771Z,51.10
2018-12-12T12:20:23.272Z,50.50
2018-12-12T12:22:49.474Z,50.50
2018-12-12T12:25:15.672Z,50.50
2018-12-12T12:27:41.916Z,50.50
2018-12-12T12:30:08.112Z,50.50
2018-12-12T12:32:34.353Z,50.50
2018-12-12T12:35:00.681Z,50.50
2018-12-12T12:37:27.248Z,50.50
2018-12-12T12:39:53.454Z,50.50
2018-12-12T12:42:19.672Z,50.50
2018-12-12T12:44:46.476Z,50.50
2018-12-12T12:47:12.684Z,50.60
2018-12-12T12:49:38.926Z,50.50
2018-12-12T12:52:05.853Z,50.50
2018-12-12T12:54:32.076Z,50.50
2018-12-12T12:56:58.300Z,50.60
2018-12-12T12:59:24.568Z,50.60
2018-12-12T13:01:51.525Z,50.50
2018-12-12T13:04:18.488Z,50.60
2018-12-12T13:06:44.754Z,50.60
2018-12-12T13:09:11.065Z,50.60
2018-12-12T13:11:38.000Z,50.60
2018-12-12T13:14:04.284Z,50.70
2018-12-12T13:16:30.503Z,50.70
2018-12-12T13:18:56.734Z,50.70
2018-12-12T13:21:23.023Z,50.70
2018-12-12T13:23:49.249Z,50.70
2018-12-12T13:26:15.482Z,50.70
2018-12-12T13:28:41.731Z,50.70
2018-12-12T13:31:08.638Z,50.70
2018-12-12T13:33:34.879Z,50.70
2018-12-12T13:36:01.378Z,50.70
2018-12-12T13:38:28.339Z,50.70
2018-12-12T13:40:55.000Z,50.70
2018-12-12T13:43:22.176Z,50.70
2018-12-12T13:45:48.644Z,50.70
2018-12-12T13:48:15.536Z,50.70
2018-12-12T13:50:41.764Z,50.70
2018-12-12T13:53:08.453Z,50.70
2018-12-12T13:55:35.036Z,50.60
2018-12-12T13:58:01.321Z,50.60
2018-12-12T14:00:27.544Z,50.60
2018-12-12T14:02:53.785Z,50.60
2018-12-12T14:05:20.009Z,50.60
2018-12-12T14:07:46.280Z,50.60
2018-12-12T14:10:12.522Z,50.60
2018-12-12T14:12:38.736Z,50.60
2018-12-12T14:15:06.082Z,50.70
2018-12-12T14:17:32.301Z,50.70
2018-12-12T14:19:59.292Z,50.80
2018-12-12T14:22:25.493Z,50.70
2018-12-12T14:24:51.752Z,50.70
2018-12-12T14:27:17.972Z,50.80
2018-12-12T14:29:44.806Z,50.80
2018-12-12T14:32:11.034Z,50.80
2018-12-12T14:34:37.303Z,50.90
2018-12-12T14:37:04.257Z,50.90
2018-12-12T14:39:31.017Z,50.90
2018-12-12T14:41:57.907Z,50.90
2018-12-12T14:44:24.419Z,51.00
2018-12-12T14:46:50.720Z,51.00
2018-12-12T14:49:16.997Z,50.90
2018-12-12T14:51:43.224Z,50.90
2018-12-12T14:54:09.564Z,50.90
2018-12-12T14:56:35.761Z,50.90
2018-12-12T14:59:02.005Z,50.90
2018-12-12T15:01:28.222Z,50.90
2018-12-12T15:03:55.031Z,50.90
2018-12-12T15:06:22.000Z,50.90
2018-12-12T15:08:48.908Z,50.90
2018-12-12T15:11:15.917Z,50.90
2018-12-12T15:13:42.108Z,50.80
2018-12-12T15:16:08.367Z,50.90
2018-12-12T15:18:35.295Z,50.90
2018-12-12T15:21:02.095Z,50.80
2018-12-12T15:23:28.305Z,50.90
2018-12-12T15:25:54.553Z,50.90
2018-12-12T15:28:21.396Z,50.90
2018-12-12T15:30:47.601Z,51.00
2018-12-12T15:33:13.811Z,50.90
2018-12-12T15:35:40.260Z,50.90
2018-12-12T15:38:07.453Z,50.90
2018-12-12T15:40:35.092Z,51.00
2018-12-12T15:43:01.454Z,51.00
2018-12-12T15:45:27.666Z,51.00
2018-12-12T15:47:54.216Z,51.10
2018-12-12T15:50:20.756Z,51.00
2018-12-12T15:52:47.962Z,51.10
2018-12-12T15:55:14.216Z,51.10
2018-12-12T15:57:40.878Z,51.10
2018-12-12T16:00:07.081Z,51.10
2018-12-12T16:02:34.132Z,51.10
2018-12-12T16:05:00.369Z,51.00
2018-12-12T16:07:28.084Z,51.00
2018-12-12T16:09:54.564Z,51.00
2018-12-12T16:12:20.770Z,51.00
2018-12-12T16:14:47.285Z,51.00
2018-12-12T16:17:13.915Z,51.00
2018-12-12T16:19:40.171Z,51.00
2018-12-12T16:22:06.373Z,51.00
2018-12-12T16:24:32.603Z,51.00
2018-12-12T16:26:59.404Z,51.00
2018-12-12T16:29:25.649Z,51.10
2018-12-12T16:31:51.853Z,51.10
2018-12-12T16:34:18.065Z,51.10
2018-12-12T16:36:44.297Z,51.10
2018-12-12T16:39:10.756Z,51.10
2018-12-12T16:41:36.997Z,51.20
2018-12-12T16:44:03.765Z,51.30
2018-12-12T16:46:30.013Z,51.20
2018-12-12T16:48:56.570Z,51.20
2018-12-12T16:51:22.810Z,51.30
2018-12-12T16:53:49.063Z,51.40
2018-12-12T16:56:15.265Z,51.30
2018-12-12T16:58:41.479Z,51.40
2018-12-12T17:01:08.836Z,52.10
2018-12-12T17:03:35.637Z,51.60
2018-12-12T17:06:02.163Z,51.50
2018-12-12T17:08:29.681Z,51.50
2018-12-12T17:10:56.479Z,51.60
2018-12-12T17:13:22.684Z,51.60
2018-12-12T17:15:48.890Z,51.60
2018-12-12T17:18:15.845Z,51.50
2018-12-12T17:20:42.382Z,51.40
2018-12-12T17:23:08.811Z,51.40
2018-12-12T17:25:35.022Z,51.40
2018-12-12T17:28:01.496Z,51.40
2018-12-12T17:30:27.717Z,51.40
2018-12-12T17:32:53.922Z,51.50
2018-12-12T17:35:20.579Z,51.60
2018-12-12T17:37:46.826Z,51.60
2018-12-12T17:40:13.249Z,51.70
2018-12-12T17:42:40.437Z,51.70
2018-12-12T17:45:06.931Z,51.70
2018-12-12T17:47:33.711Z,51.70
2018-12-12T17:50:00.905Z,51.70
2018-12-12T17:52:27.569Z,51.70
2018-12-12T17:54:53.793Z,51.70
2018-12-12T17:57:20.807Z,51.70
2018-12-12T17:59:47.423Z,51.70
2018-12-12T18:02:13.860Z,51.70
2018-12-12T18:04:40.445Z,52.20
2018-12-12T18:07:06.686Z,51.60
2018-12-12T18:09:32.972Z,51.50
2018-12-12T18:11:59.169Z,51.50
2018-12-12T18:14:25.413Z,51.60
2018-12-12T18:16:51.736Z,51.70
2018-12-12T18:19:18.363Z,51.60
2018-12-12T18:21:44.589Z,51.60
2018-12-12T18:24:10.800Z,51.60
2018-12-12T18:26:37.046Z,51.60
2018-12-12T18:29:04.034Z,51.60
2018-12-12T18:31:37.594Z,51.60
2018-12-12T18:34:06.148Z,51.50
2018-12-12T18:36:32.389Z,51.60
2018-12-12T18:38:58.600Z,51.60
2018-12-12T18:41:25.444Z,51.60
2018-12-12T18:43:52.416Z,51.60
2018-12-12T18:46:18.638Z,51.60
2018-12-12T18:48:44.944Z,51.70
2018-12-12T18:51:11.971Z,51.80
2018-12-12T18:53:38.827Z,51.80
2018-12-12T18:56:05.046Z,51.90
2018-12-12T18:58:31.622Z,51.90
2018-12-12T19:00:57.861Z,52.00
2018-12-12T19:03:24.138Z,51.90
2018-12-12T19:08:23.334Z,51.90
2018-12-12T19:10:50.379Z,51.90
2018-12-12T19:13:17.355Z,51.90
2018-12-12T19:15:43.636Z,52.00
2018-12-12T19:18:10.061Z,51.90
2018-12-12T19:20:37.230Z,51.90
2018-12-12T19:23:03.466Z,51.90
2018-12-12T19:25:29.917Z,51.90
2018-12-12T19:27:56.743Z,52.00
2018-12-12T19:30:23.792Z,52.00
2018-12-12T19:32:51.158Z,52.00
2018-12-12T19:35:17.657Z,52.00
2018-12-12T19:37:44.651Z,52.10
2018-12-12T19:40:11.264Z,52.00
2018-12-12T19:42:37.493Z,52.00
2018-12-12T19:45:03.960Z,51.50
2018-12-12T19:47:30.179Z,51.90
2018-12-12T19:49:57.044Z,51.80
2018-12-12T19:52:23.262Z,51.80
2018-12-12T19:54:49.581Z,51.90
2018-12-12T19:57:16.018Z,51.90
2018-12-12T19:59:42.582Z,51.80
2018-12-12T20:02:08.839Z,51.90
2018-12-12T20:04:35.051Z,52.00
2018-12-12T20:07:01.307Z,52.10
2018-12-12T20:09:29.067Z,52.00
2018-12-12T20:11:55.700Z,52.10
2018-12-12T20:14:21.928Z,52.10
2018-12-12T20:16:48.388Z,52.10
2018-12-12T20:19:14.925Z,52.20
2018-12-12T20:21:41.321Z,52.20
2018-12-12T20:24:07.554Z,52.30
2018-12-12T20:26:33.793Z,52.20
2018-12-12T20:29:00.017Z,52.20
2018-12-12T20:31:26.254Z,52.30
2018-12-12T20:33:52.460Z,52.30
2018-12-12T20:36:19.096Z,52.40
2018-12-12T20:38:45.322Z,52.40
2018-12-12T20:41:11.696Z,52.40
2018-12-12T20:43:37.942Z,52.40
2018-12-12T20:46:04.764Z,52.40
2018-12-12T20:48:30.994Z,52.30
2018-12-12T20:50:57.931Z,52.40
2018-12-12T20:53:24.148Z,52.30
2018-12-12T20:55:50.344Z,52.40
2018-12-12T20:58:16.542Z,52.50
2018-12-12T21:00:42.815Z,52.20
2018-12-12T21:03:09.017Z,52.30
2018-12-12T21:05:36.060Z,52.20
2018-12-12T21:08:02.281Z,52.30
2018-12-12T21:10:28.522Z,52.40
2018-12-12T21:12:54.728Z,52.40
2018-12-12T21:15:21.004Z,52.40
2018-12-12T21:17:47.256Z,52.50
2018-12-12T21:20:14.365Z,52.60
2018-12-12T21:22:40.634Z,52.60
2018-12-12T21:25:06.885Z,52.70
2018-12-12T21:27:33.504Z,52.70
2018-12-12T21:29:59.855Z,52.60
2018-12-12T21:32:26.116Z,52.70
2018-12-12T21:34:52.348Z,53.30
2018-12-12T21:37:18.776Z,52.70
2018-12-12T21:39:45.387Z,52.80
2018-12-12T21:42:12.035Z,52.80
2018-12-12T21:44:38.724Z,53.00
2018-12-12T21:47:04.977Z,53.00
2018-12-12T21:49:31.186Z,53.10
2018-12-12T21:51:57.429Z,53.20
2018-12-12T21:54:23.675Z,53.10
2018-12-12T21:56:50.153Z,53.20
2018-12-12T21:59:16.696Z,53.00
2018-12-12T22:01:42.909Z,53.10
2018-12-12T22:04:09.129Z,53.10
2018-12-12T22:06:35.363Z,53.00
2018-12-12T22:09:01.653Z,52.90
2018-12-12T22:11:27.887Z,52.90
2018-12-12T22:13:54.089Z,52.90
2018-12-12T22:16:20.644Z,52.80
2018-12-12T22:18:46.845Z,52.80
2018-12-12T22:21:13.108Z,52.80
2018-12-12T22:23:39.718Z,52.80
2018-12-12T22:26:05.964Z,52.70
2018-12-12T22:28:32.202Z,52.70
2018-12-12T22:30:58.401Z,52.70
2018-12-12T22:33:25.301Z,52.80
2018-12-12T22:35:52.116Z,52.80
2018-12-12T22:38:18.376Z,52.80
2018-12-12T22:40:45.404Z,52.70
2018-12-12T22:43:11.640Z,52.70
2018-12-12T22:45:37.881Z,52.70
2018-12-12T22:48:04.148Z,52.70
2018-12-12T22:50:31.034Z,52.70
2018-12-12T22:52:58.185Z,52.70
2018-12-12T22:55:24.387Z,52.70
2018-12-12T22:57:51.312Z,52.60
2018-12-12T23:00:17.884Z,52.70
2018-12-12T23:02:44.192Z,52.60
2018-12-12T23:05:10.466Z,52.60
2018-12-12T23:07:36.677Z,52.60
2018-12-12T23:10:03.033Z,52.60
2018-12-12T23:12:29.701Z,52.50
2018-12-12T23:14:56.241Z,52.50
2018-12-12T23:17:23.183Z,52.50
2018-12-12T23:19:49.413Z,52.50
2018-12-12T23:22:15.677Z,52.50
